Time;durP1;ratioP1;P1;durP2;ratioP2;P2;SDS_P1;SDS_P2;PMS_P1;PMS_P2;Temp;Humidity;BMP_temperature;BMP_pressure;BME280_temperature;BME280_humidity;BME280_pressure;Samples;Min_cycle;Max_cycle;Signal;HPM_P1;HPM_P2
2023/04/01 00:01:51;;;;;;;;;0.00;0.00;;;;;20.42;39.06;99780.81;5076909;28;46576;-40
2023/04/01 00:04:16;;;;;;;;;0.00;0.00;;;;;20.43;39.37;99786.91;5075942;28;69410;-39
2023/04/01 00:06:41;;;;;;;;;0.00;0.00;;;;;20.43;39.58;99779.03;5076933;28;45343;-39
2023/04/01 00:09:07;;;;;;;;;0.00;0.00;;;;;20.42;39.21;99779.97;5077129;28;45610;-39
2023/04/01 00:11:32;;;;;;;;;1.00;0.00;;;;;20.41;39.69;99780.91;5076175;28;62922;-39
2023/04/01 00:13:58;;;;;;;;;0.00;0.00;;;;;20.42;39.23;99772.06;5076801;27;45413;-41
2023/04/01 00:16:23;;;;;;;;;0.00;0.00;;;;;20.41;39.54;99778.28;5077179;27;45320;-39
2023/04/01 00:18:50;;;;;;;;;1.00;0.00;;;;;20.40;39.69;99772.16;5076445;28;45317;-39
2023/04/01 00:21:17;;;;;;;;;0.00;0.00;;;;;20.41;39.72;99773.03;5076577;27;46262;-39
2023/04/01 00:23:43;;;;;;;;;0.00;0.00;;;;;20.40;39.74;99785.31;5076664;28;45794;-39
2023/04/01 00:26:09;;;;;;;;;0.00;0.00;;;;;20.41;39.82;99799.34;5076784;28;45431;-39
2023/04/01 00:28:35;;;;;;;;;0.00;0.00;;;;;20.41;39.55;99786.19;5076920;28;45458;-40
2023/04/01 00:31:06;;;;;;;;;0.00;0.00;;;;;20.40;39.62;99782.69;5076409;28;46664;-39
2023/04/01 00:33:31;;;;;;;;;0.00;0.00;;;;;20.39;39.48;99784.50;5076484;27;45326;-39
2023/04/01 00:36:06;;;;;;;;;0.00;0.00;;;;;20.39;39.79;99789.75;5076524;28;51541;-39
2023/04/01 00:38:31;;;;;;;;;0.00;0.00;;;;;20.42;39.73;99795.75;5058542;28;45541;-40
2023/04/01 00:40:58;;;;;;;;;1.00;0.00;;;;;20.41;39.88;99791.44;5076670;28;46303;-41
2023/04/01 00:43:23;;;;;;;;;0.00;0.00;;;;;20.41;39.78;99786.19;5076243;28;45390;-41
2023/04/01 00:45:49;;;;;;;;;0.50;0.00;;;;;20.40;39.44;99790.59;5076051;27;56639;-40
2023/04/01 00:48:22;;;;;;;;;0.00;0.00;;;;;20.39;39.62;99787.13;5076699;28;45679;-40
2023/04/01 00:50:53;;;;;;;;;0.25;0.25;;;;;20.38;39.65;99795.97;5076116;28;47394;-39
2023/04/01 00:53:20;;;;;;;;;0.00;0.00;;;;;20.39;39.52;99789.75;5076000;28;45581;-41
2023/04/01 00:56:10;;;;;;;;;0.00;0.00;;;;;20.39;39.78;99789.75;5076616;28;45376;-39
2023/04/01 00:58:40;;;;;;;;;0.00;0.00;;;;;20.38;39.64;99787.25;5076598;28;45227;-40
2023/04/01 01:01:08;;;;;;;;;0.00;0.00;;;;;20.38;39.83;99787.25;5076021;28;47618;-39
2023/04/01 01:03:34;;;;;;;;;0.00;0.00;;;;;20.37;39.55;99778.50;5076172;28;45342;-39
2023/04/01 01:06:30;;;;;;;;;0.00;0.00;;;;;20.37;39.73;99781.13;5076485;27;45355;-40
2023/04/01 01:09:07;;;;;;;;;0.25;0.25;;;;;20.36;39.77;99787.34;5054698;28;45600;-39
2023/04/01 01:12:00;;;;;;;;;0.00;0.00;;;;;20.36;39.54;99792.59;5075636;28;47099;-39
2023/04/01 01:14:56;;;;;;;;;0.00;0.00;;;;;20.37;39.86;99788.19;5075930;28;45631;-39
2023/04/01 01:17:42;;;;;;;;;0.75;0.00;;;;;20.36;39.76;99787.34;5076201;28;45458;-39
2023/04/01 01:20:30;;;;;;;;;0.00;0.00;;;;;20.37;39.71;99790.84;5076280;28;45386;-39
2023/04/01 01:23:13;;;;;;;;;0.00;0.00;;;;;20.36;40.06;99787.34;5075923;28;45834;-39
2023/04/01 01:26:02;;;;;;;;;0.00;0.00;;;;;20.33;40.01;99781.47;5075851;27;45875;-39
2023/04/01 01:28:46;;;;;;;;;0.00;0.00;;;;;20.36;39.69;99784.72;5076360;28;45806;-39
2023/04/01 01:31:35;;;;;;;;;0.00;0.00;;;;;20.35;39.53;99784.84;5077193;28;45563;-38
2023/04/01 01:34:29;;;;;;;;;1.50;0.00;;;;;20.33;40.13;99777.06;5079472;27;46322;-39
2023/04/01 01:36:59;;;;;;;;;0.75;0.00;;;;;20.35;39.94;99788.28;5079312;28;45330;-40
2023/04/01 01:39:30;;;;;;;;;1.00;0.00;;;;;20.35;39.61;99790.91;5061172;28;45330;-39
2023/04/01 01:41:59;;;;;;;;;0.00;0.00;;;;;20.35;39.84;99796.19;5079607;28;45360;-39
2023/04/01 01:44:27;;;;;;;;;0.00;0.00;;;;;20.32;39.78;99793.78;5078839;28;46272;-41
2023/04/01 01:46:53;;;;;;;;;0.00;0.00;;;;;20.34;40.11;99799.75;5079094;28;45194;-40
2023/04/01 01:49:20;;;;;;;;;0.50;0.00;;;;;20.34;40.17;99796.31;5079216;28;45459;-40
2023/04/01 01:51:45;;;;;;;;;1.75;0.00;;;;;20.34;39.87;99801.56;5079414;28;45255;-39
2023/04/01 01:54:16;;;;;;;;;0.00;0.00;;;;;20.34;39.94;99797.13;5078942;28;46057;-41
2023/04/01 01:56:46;;;;;;;;;0.00;0.00;;;;;20.32;39.88;99806.94;5059967;28;45228;-39
2023/04/01 01:59:14;;;;;;;;;0.00;0.00;;;;;20.33;39.71;99802.50;5094590;27;45376;-39
2023/04/01 02:01:44;;;;;;;;;0.00;0.00;;;;;20.35;39.97;99806.72;5079280;27;45449;-39
2023/04/01 02:04:11;;;;;;;;;0.00;0.00;;;;;20.33;40.29;99803.38;5079024;28;46693;-41
2023/04/01 02:06:41;;;;;;;;;0.00;0.00;;;;;20.34;40.24;99807.66;5078920;28;45778;-39
2023/04/01 02:09:10;;;;;;;;;0.00;0.00;;;;;20.34;40.10;99804.19;5079046;28;45319;-40
2023/04/01 02:11:46;;;;;;;;;1.00;0.00;;;;;20.34;39.79;99818.19;5078788;28;45561;-39
2023/04/01 02:14:17;;;;;;;;;0.00;0.00;;;;;20.33;40.15;99803.38;5078694;27;46728;-39
2023/04/01 02:16:59;;;;;;;;;0.00;0.00;;;;;20.34;39.85;99817.34;5078879;28;45319;-39
2023/04/01 02:19:33;;;;;;;;;0.00;0.00;;;;;20.33;39.92;99816.53;5078884;27;45430;-40
2023/04/01 02:22:03;;;;;;;;;0.00;0.00;;;;;20.32;39.88;99817.47;5078857;27;45354;-40
2023/04/01 02:24:31;;;;;;;;;0.00;0.00;;;;;20.32;40.14;99806.94;5078551;28;46319;-41
2023/04/01 02:26:57;;;;;;;;;2.00;0.00;;;;;20.32;40.07;99806.09;5060295;28;45383;-42
2023/04/01 02:29:27;;;;;;;;;0.00;0.00;;;;;20.33;40.40;99799.88;5078656;27;45371;-43
2023/04/01 02:31:53;;;;;;;;;0.00;0.00;;;;;20.33;40.11;99808.63;5078792;27;45181;-45
2023/04/01 02:34:21;;;;;;;;;0.00;0.00;;;;;20.33;39.94;99811.25;5078250;27;45398;-41
2023/04/01 02:36:49;;;;;;;;;0.00;0.00;;;;;20.32;40.40;99812.22;5078399;28;45827;-41
2023/04/01 02:39:15;;;;;;;;;0.00;0.00;;;;;20.32;39.92;99806.94;5077103;28;45460;-40
2023/04/01 02:41:43;;;;;;;;;0.00;0.00;;;;;20.32;40.32;99812.22;5078318;27;45505;-42
2023/04/01 02:44:10;;;;;;;;;0.00;0.00;;;;;20.34;40.25;99809.47;5078122;28;46117;-40
2023/04/01 02:46:36;;;;;;;;;0.00;0.00;;;;;20.33;40.60;99819.16;5078596;28;45249;-42
2023/04/01 02:49:02;;;;;;;;;0.00;0.00;;;;;20.33;40.31;99816.53;5078274;27;45388;-40
2023/04/01 02:51:27;;;;;;;;;0.00;0.00;;;;;20.31;40.09;99815.78;5078537;28;45572;-41
2023/04/01 02:53:53;;;;;;;;;0.00;0.00;;;;;20.33;40.29;99824.44;5077942;27;45507;-42
2023/04/01 02:56:19;;;;;;;;;0.00;0.00;;;;;20.33;40.09;99820.94;5077295;28;66630;-42
2023/04/01 02:58:45;;;;;;;;;0.00;0.00;;;;;20.32;40.02;99812.22;5093821;27;45442;-40
2023/04/01 03:01:10;;;;;;;;;1.00;0.00;;;;;20.29;40.06;99817.69;5078259;28;45536;-39
2023/04/01 03:03:36;;;;;;;;;0.00;0.00;;;;;20.32;40.12;99832.41;5059830;28;47159;-39
2023/04/01 03:06:09;;;;;;;;;0.00;0.00;;;;;20.30;40.57;99819.38;5077305;28;58091;-39
2023/04/01 03:08:35;;;;;;;;;0.00;0.00;;;;;20.32;40.20;99829.78;5078403;28;45437;-39
2023/04/01 03:11:00;;;;;;;;;0.00;0.00;;;;;20.31;40.33;99822.81;5059804;28;45412;-40
2023/04/01 03:13:26;;;;;;;;;1.00;0.00;;;;;20.32;39.94;99832.41;5077636;27;46547;-39
2023/04/01 03:15:52;;;;;;;;;0.00;0.00;;;;;20.32;40.02;99841.16;5077777;27;45247;-39
2023/04/01 03:18:19;;;;;;;;;0.00;0.00;;;;;20.30;40.16;99835.16;5077857;28;45449;-40
2023/04/01 03:20:44;;;;;;;;;0.00;0.00;;;;;20.30;40.46;99832.53;5059756;28;45535;-43
2023/04/01 03:23:10;;;;;;;;;0.00;0.00;;;;;20.30;40.25;99835.16;5077428;27;46444;-39
2023/04/01 03:25:35;;;;;;;;;0.00;0.00;;;;;20.29;40.24;99849.25;5077882;27;45231;-42
2023/04/01 03:28:01;;;;;;;;;0.75;0.00;;;;;20.31;40.21;99842.09;5077768;28;45370;-39
2023/04/01 03:30:26;;;;;;;;;0.00;0.00;;;;;20.31;40.36;99842.09;5059554;28;45559;-38
2023/04/01 03:32:52;;;;;;;;;1.00;0.00;;;;;20.31;40.19;99852.63;5077258;28;46549;-39
2023/04/01 03:35:17;;;;;;;;;0.75;0.00;;;;;20.30;40.12;99850.09;5077314;27;45439;-40
2023/04/01 03:37:43;;;;;;;;;0.00;0.00;;;;;20.30;40.07;99850.94;5077540;27;45389;-39
2023/04/01 03:40:09;;;;;;;;;0.00;0.00;;;;;20.30;40.60;99844.81;5077929;28;45305;-40
2023/04/01 03:42:34;;;;;;;;;0.00;0.00;;;;;20.30;40.26;99852.72;5077151;28;46350;-40
2023/04/01 03:45:00;;;;;;;;;0.00;0.00;;;;;20.30;40.10;99856.22;5077244;28;45295;-40
2023/04/01 03:47:25;;;;;;;;;0.00;0.00;;;;;20.28;40.17;99847.56;5077614;28;45401;-40
2023/04/01 03:49:51;;;;;;;;;0.00;0.00;;;;;20.28;40.00;99852.84;5077563;27;45390;-39
2023/04/01 03:52:16;;;;;;;;;0.00;0.00;;;;;20.29;40.00;99854.53;5076933;28;57192;-39
2023/04/01 03:54:41;;;;;;;;;0.00;0.00;;;;;20.29;40.70;99861.56;5076283;28;45222;-41
2023/04/01 03:57:07;;;;;;;;;0.00;0.00;;;;;20.29;40.64;99866.81;5077297;28;46447;-41
2023/04/01 03:59:32;;;;;;;;;1.00;0.00;;;;;20.28;40.31;99855.47;5077455;28;45319;-39
2023/04/01 04:01:57;;;;;;;;;0.25;0.25;;;;;20.27;40.25;99851.16;5076912;28;45509;-40
2023/04/01 04:04:23;;;;;;;;;0.00;0.00;;;;;20.30;40.16;99861.47;5076946;27;45377;-39
2023/04/01 04:06:48;;;;;;;;;0.00;0.00;;;;;20.28;40.33;99865.16;5076468;28;57736;-38
2023/04/01 04:09:13;;;;;;;;;0.00;0.00;;;;;20.29;40.15;99878.22;5077229;27;45648;-39
2023/04/01 04:11:39;;;;;;;;;0.00;0.00;;;;;20.28;40.38;99866.00;5076498;28;61175;-39
2023/04/01 04:14:05;;;;;;;;;0.00;0.00;;;;;20.27;40.52;99876.63;5076657;27;45652;-39
2023/04/01 04:16:31;;;;;;;;;0.00;0.00;;;;;20.27;40.16;99861.69;5076925;27;45717;-40
2023/04/01 04:18:56;;;;;;;;;0.00;0.00;;;;;20.29;40.10;99875.56;5077062;27;45328;-39
2023/04/01 04:21:22;;;;;;;;;0.00;0.00;;;;;20.29;40.69;99872.09;5076253;28;57254;-39
2023/04/01 04:23:47;;;;;;;;;0.00;0.00;;;;;20.28;40.11;99883.59;5076769;28;45430;-39
2023/04/01 04:26:14;;;;;;;;;0.00;0.00;;;;;20.28;40.52;99873.06;5077208;28;45662;-39
2023/04/01 04:28:40;;;;;;;;;1.00;0.00;;;;;20.28;40.50;99884.41;5077170;28;45485;-39
2023/04/01 04:31:07;;;;;;;;;0.00;0.00;;;;;20.27;40.49;99880.09;5076425;27;45512;-39
2023/04/01 04:33:33;;;;;;;;;1.00;0.00;;;;;20.28;40.10;99889.69;5076456;28;45715;-39
2023/04/01 04:35:59;;;;;;;;;0.25;0.00;;;;;20.27;40.16;99888.00;5058485;28;45391;-39
2023/04/01 04:38:26;;;;;;;;;0.00;0.00;;;;;20.28;40.13;99886.22;5076900;28;45561;-39
2023/04/01 04:40:51;;;;;;;;;0.00;0.00;;;;;20.26;40.32;99877.59;5076397;28;46899;-40
2023/04/01 04:43:18;;;;;;;;;0.00;0.00;;;;;20.26;40.64;99880.22;5058209;28;45358;-41
2023/04/01 04:45:43;;;;;;;;;0.00;0.00;;;;;20.26;40.18;99888.94;5076824;28;45456;-39
2023/04/01 04:48:10;;;;;;;;;1.00;0.00;;;;;20.26;40.65;99885.47;5076633;27;45592;-40
2023/04/01 04:50:36;;;;;;;;;1.00;0.00;;;;;20.26;40.70;99881.03;5076377;28;45398;-40
2023/04/01 04:53:02;;;;;;;;;0.00;0.00;;;;;20.27;40.21;99895.88;5076244;28;45322;-40
2023/04/01 04:55:27;;;;;;;;;0.00;0.00;;;;;20.26;40.18;99896.81;5076564;28;45442;-40
2023/04/01 04:57:52;;;;;;;;;0.00;0.00;;;;;20.26;40.63;99894.19;5058292;28;45382;-41
2023/04/01 05:00:18;;;;;;;;;0.00;0.00;;;;;20.22;40.17;99877.78;5076080;27;45304;-40
2023/04/01 05:02:43;;;;;;;;;0.00;0.00;;;;;20.25;40.13;99900.41;5076522;28;45358;-39
2023/04/01 05:05:10;;;;;;;;;0.50;0.00;;;;;20.27;40.49;99898.50;5077308;28;45247;-39
2023/04/01 05:07:35;;;;;;;;;0.50;0.00;;;;;20.26;40.49;99904.72;5080034;28;45212;-39
2023/04/01 05:10:00;;;;;;;;;0.00;0.00;;;;;20.26;40.23;99904.72;5079523;28;46395;-39
2023/04/01 05:12:26;;;;;;;;;0.00;0.00;;;;;20.25;40.28;99903.03;5079613;28;45223;-39
2023/04/01 05:14:51;;;;;;;;;0.00;0.00;;;;;20.27;40.16;99908.22;5079586;27;45334;-39
2023/04/01 05:17:16;;;;;;;;;1.50;0.00;;;;;20.25;40.28;99905.66;5079943;28;45434;-38
2023/04/01 05:19:42;;;;;;;;;0.00;0.00;;;;;20.24;40.47;99904.84;5079040;27;64500;-39
2023/04/01 05:22:07;;;;;;;;;0.00;0.00;;;;;20.26;40.38;99912.63;5079126;27;57254;-40
2023/04/01 05:24:33;;;;;;;;;1.00;0.00;;;;;20.26;40.25;99906.53;5079142;28;54014;-38
2023/04/01 05:26:59;;;;;;;;;0.75;0.00;;;;;20.25;40.30;99916.19;5061636;28;45381;-41
2023/04/01 05:29:26;;;;;;;;;0.00;0.00;;;;;20.25;40.63;99910.94;5079207;27;46247;-39
2023/04/01 05:31:52;;;;;;;;;0.00;0.00;;;;;20.26;40.28;99922.31;5079471;27;45836;-39
2023/04/01 05:34:17;;;;;;;;;0.00;0.00;;;;;20.24;40.16;99917.13;5079951;28;45279;-39
2023/04/01 05:36:43;;;;;;;;;0.00;0.00;;;;;20.24;40.79;99930.28;5080034;28;45585;-40
2023/04/01 05:39:09;;;;;;;;;0.00;0.00;;;;;20.25;40.56;99931.97;5079212;28;45495;-39
2023/04/01 05:41:35;;;;;;;;;0.00;0.00;;;;;20.24;40.12;99930.28;5079239;28;45304;-39
2023/04/01 05:44:01;;;;;;;;;1.75;0.00;;;;;20.23;40.54;99923.34;5079309;27;45455;-39
2023/04/01 05:46:26;;;;;;;;;0.00;0.00;;;;;20.23;40.77;99939.13;5079691;27;45256;-40
2023/04/01 05:48:52;;;;;;;;;0.00;0.00;;;;;20.21;40.27;99935.78;5079060;28;45425;-39
2023/04/01 05:51:17;;;;;;;;;0.00;0.00;;;;;20.20;40.89;99944.63;5079303;28;45451;-39
2023/04/01 05:53:43;;;;;;;;;0.00;0.00;;;;;20.18;40.21;99934.19;5079130;27;45835;-39
2023/04/01 05:56:09;;;;;;;;;1.00;0.00;;;;;20.17;40.15;99945.69;5079262;28;45323;-39
2023/04/01 05:58:35;;;;;;;;;0.00;0.00;;;;;20.18;40.79;99949.97;5078676;27;46520;-40
2023/04/01 06:01:09;;;;;;;;;0.00;0.00;;;;;20.16;40.57;99949.25;5060671;28;45343;-40
2023/04/01 06:03:35;;;;;;;;;0.00;0.00;;;;;20.16;40.62;99958.91;5079014;27;45738;-41
2023/04/01 06:06:01;;;;;;;;;0.50;0.50;;;;;20.16;40.70;99958.91;5078988;28;45556;-39
2023/04/01 06:08:27;;;;;;;;;2.00;0.75;;;;;20.14;40.31;99960.81;5078636;28;45358;-41
2023/04/01 06:11:02;;;;;;;;;2.50;1.00;;;;;20.14;40.68;99963.44;5078557;28;45746;-40
2023/04/01 06:13:57;;;;;;;;;2.25;1.50;;;;;20.12;40.73;99968.81;5060540;27;45391;-39
2023/04/01 06:16:32;;;;;;;;;2.25;2.00;;;;;20.11;40.71;99966.31;5078265;27;45540;-39
2023/04/01 06:19:10;;;;;;;;;1.00;1.00;;;;;20.10;40.72;99973.34;5078559;28;45662;-39
2023/04/01 06:21:48;;;;;;;;;2.25;2.25;;;;;20.11;40.24;99976.81;5078471;28;45744;-40
2023/04/01 06:24:36;;;;;;;;;3.00;2.00;;;;;20.11;40.70;99988.16;5078636;27;45500;-40
2023/04/01 06:27:36;;;;;;;;;1.75;1.50;;;;;20.11;40.75;99974.19;5078822;27;45299;-40
2023/04/01 06:30:24;;;;;;;;;4.25;2.00;;;;;20.10;40.41;99981.22;5072554;27;45534;-40
2023/04/01 06:33:23;;;;;;;;;2.00;2.00;;;;;20.10;40.25;99975.13;5078737;28;45362;-40
2023/04/01 06:36:19;;;;;;;;;2.00;2.00;;;;;20.11;40.25;99985.53;5078767;27;45459;-40
2023/04/01 06:38:50;;;;;;;;;1.25;1.25;;;;;20.12;40.30;99983.78;5060204;28;45410;-40
2023/04/01 06:41:27;;;;;;;;;2.00;2.00;;;;;20.13;40.51;99993.31;5078013;28;46412;-40
2023/04/01 06:44:07;;;;;;;;;2.50;1.00;;;;;20.14;40.95;99997.63;5078248;28;45325;-40
2023/04/01 06:46:52;;;;;;;;;2.25;1.00;;;;;20.15;40.60;99994.06;5078263;27;45362;-40
2023/04/01 06:49:23;;;;;;;;;1.00;1.00;;;;;20.16;40.34;99998.38;5078645;27;45333;-40
2023/04/01 06:52:03;;;;;;;;;1.00;1.00;;;;;20.17;40.64;100002.69;5078263;27;46789;-39
2023/04/01 06:54:36;;;;;;;;;0.50;0.50;;;;;20.18;40.81;99999.97;5077696;28;45875;-40
2023/04/01 06:57:18;;;;;;;;;3.50;1.00;;;;;20.18;40.61;100001.75;5077836;28;45520;-39
2023/04/01 06:59:44;;;;;;;;;1.00;1.00;;;;;20.19;40.80;100003.44;5078018;28;45200;-41
2023/04/01 07:02:09;;;;;;;;;1.00;1.00;;;;;20.19;40.83;100000.81;5077596;28;47232;-40
2023/04/01 07:04:41;;;;;;;;;0.75;0.00;;;;;20.20;40.44;100007.78;5077699;28;45291;-40
2023/04/01 07:07:32;;;;;;;;;1.25;1.00;;;;;20.21;40.51;100006.81;5077892;28;45265;-41
2023/04/01 07:10:00;;;;;;;;;1.00;1.00;;;;;20.20;40.85;100010.41;5077686;28;45429;-40
2023/04/01 07:12:34;;;;;;;;;0.50;0.50;;;;;20.22;40.54;100005.88;5077415;28;47175;-41
2023/04/01 07:15:09;;;;;;;;;1.00;1.00;;;;;20.22;40.82;100019.03;5078484;27;45859;-40
2023/04/01 07:17:39;;;;;;;;;0.75;0.75;;;;;20.22;40.61;100017.22;5077707;28;45341;-39
2023/04/01 07:20:22;;;;;;;;;1.00;1.00;;;;;20.24;40.46;100014.50;5077603;27;45250;-39
2023/04/01 07:22:51;;;;;;;;;0.00;0.00;;;;;20.24;40.74;100014.50;5077376;28;46814;-40
2023/04/01 07:25:21;;;;;;;;;1.00;1.00;;;;;20.24;40.66;100009.22;5077428;27;45986;-41
2023/04/01 07:27:47;;;;;;;;;1.00;1.00;;;;;20.26;41.06;100017.88;5042303;28;45289;-40
2023/04/01 07:30:18;;;;;;;;;0.00;0.00;;;;;20.26;41.02;100020.50;5076678;28;45520;-41
2023/04/01 07:33:21;;;;;;;;;1.50;0.25;;;;;20.29;40.70;100024.69;5077120;28;46650;-40
2023/04/01 07:36:05;;;;;;;;;0.00;0.00;;;;;20.31;41.41;100021.03;5039744;28;45605;-40
2023/04/01 07:38:46;;;;;;;;;1.00;1.00;;;;;20.32;41.03;100032.41;5077214;27;45244;-40
2023/04/01 07:41:42;;;;;;;;;0.50;0.00;;;;;20.35;40.90;100027.78;5077621;27;45335;-40
2023/04/01 07:44:45;;;;;;;;;0.00;0.00;;;;;20.36;40.73;100032.09;5077086;28;45668;-41
2023/04/01 07:47:33;;;;;;;;;0.00;0.00;;;;;20.37;40.87;100025.06;5077126;28;45684;-39
2023/04/01 07:50:18;;;;;;;;;0.00;0.00;;;;;20.36;41.19;100024.19;5059103;28;45306;-43
2023/04/01 07:52:43;;;;;;;;;0.25;0.00;;;;;20.39;41.03;100034.53;5059131;28;45469;-43
2023/04/01 07:55:12;;;;;;;;;0.00;0.00;;;;;20.39;40.69;100028.44;5076831;27;51584;-40
2023/04/01 07:57:49;;;;;;;;;0.00;0.00;;;;;20.40;40.74;100032.72;5058781;28;45839;-42
2023/04/01 08:00:46;;;;;;;;;0.00;0.00;;;;;20.42;41.15;100043.16;5077116;28;45355;-42
2023/04/01 08:03:34;;;;;;;;;0.00;0.00;;;;;20.43;40.91;100040.41;5062687;28;45391;-41
2023/04/01 08:06:17;;;;;;;;;0.00;0.00;;;;;20.44;40.88;100054.44;5058423;28;47384;-41
2023/04/01 08:08:55;;;;;;;;;0.75;0.00;;;;;20.44;40.79;100042.09;5077013;28;45342;-40
2023/04/01 08:11:41;;;;;;;;;0.00;0.00;;;;;20.45;40.96;100049.06;5077049;28;45232;-42
2023/04/01 08:14:27;;;;;;;;;0.00;0.00;;;;;20.44;40.89;100047.38;5058954;28;45453;-40
2023/04/01 08:17:08;;;;;;;;;0.00;0.00;;;;;20.45;40.75;100053.50;5077070;28;46332;-42
2023/04/01 08:19:56;;;;;;;;;0.00;0.00;;;;;20.43;41.03;100058.00;5076647;28;45261;-39
2023/04/01 08:22:28;;;;;;;;;1.00;0.00;;;;;20.43;40.78;100050.13;5055965;28;45386;-40
2023/04/01 08:24:57;;;;;;;;;0.00;0.00;;;;;20.42;40.67;100054.53;5077342;28;45189;-39
2023/04/01 08:27:37;;;;;;;;;0.50;0.00;;;;;20.43;40.61;100063.28;5076559;28;46399;-40
2023/04/01 08:30:25;;;;;;;;;0.00;0.00;;;;;20.43;41.15;100077.25;5076714;28;45396;-39
2023/04/01 08:33:07;;;;;;;;;1.00;0.00;;;;;20.44;40.79;100057.06;5076596;28;45262;-39
2023/04/01 16:26:26;;;;;;;;;1.75;0.00;;;;;19.59;38.82;100257.91;5073234;28;45751;-41
2023/04/01 16:29:20;;;;;;;;;0.00;0.00;;;;;19.63;38.62;100262.03;5074768;28;47085;-39
2023/04/01 16:32:14;;;;;;;;;0.00;0.00;;;;;19.68;38.91;100265.22;5076075;27;45244;-39
2023/04/01 16:35:18;;;;;;;;;0.50;0.00;;;;;19.72;38.84;100266.75;5076387;28;45370;-40
2023/04/01 16:37:50;;;;;;;;;0.00;0.00;;;;;19.77;38.35;100261.19;5069738;27;45198;-39
2023/04/01 16:40:16;;;;;;;;;0.00;0.00;;;;;19.80;39.13;100268.91;5080510;28;46718;-39
2023/04/01 16:43:04;;;;;;;;;0.00;0.00;;;;;19.82;39.02;100272.28;5083350;28;45311;-39
2023/04/01 16:45:43;;;;;;;;;0.00;0.00;;;;;19.84;39.08;100275.69;5077508;28;45307;-39
2023/04/01 16:48:09;;;;;;;;;0.00;0.00;;;;;19.87;38.70;100290.44;5066453;27;45500;-40
2023/04/01 16:51:02;;;;;;;;;0.00;0.00;;;;;19.90;38.67;100288.47;5056099;28;46353;-40
2023/04/01 16:53:45;;;;;;;;;0.00;0.00;;;;;19.93;38.78;100287.44;5055399;28;45427;-40
2023/04/01 16:56:20;;;;;;;;;0.00;0.00;;;;;19.94;38.46;100294.38;5055979;28;45384;-41
2023/04/01 16:59:19;;;;;;;;;0.00;0.00;;;;;19.96;38.62;100299.53;5056327;28;45327;-41
2023/04/01 17:01:52;;;;;;;;;0.25;0.25;;;;;19.97;38.64;100294.19;5003644;28;45644;-41
2023/04/01 17:04:31;;;;;;;;;0.00;0.00;;;;;19.97;38.95;100285.44;5059342;28;45295;-42
2023/04/01 17:07:27;;;;;;;;;0.25;0.00;;;;;20.00;39.02;100293.16;5080346;27;45360;-41
2023/04/01 17:10:17;;;;;;;;;0.00;0.00;;;;;20.01;39.16;100300.13;5071223;28;44830;-41
2023/04/01 17:13:11;;;;;;;;;0.00;0.00;;;;;20.02;38.96;100302.63;5088859;28;45574;-40
2023/04/01 17:15:51;;;;;;;;;0.00;0.00;;;;;20.03;38.86;100306.97;5061953;28;45608;-41
2023/04/01 17:18:53;;;;;;;;;0.00;0.00;;;;;20.04;39.18;100299.94;5085911;28;45346;-39
2023/04/01 17:21:30;;;;;;;;;0.00;0.00;;;;;20.03;39.25;100306.97;5081966;28;45352;-41
2023/04/01 17:24:06;;;;;;;;;0.00;0.00;;;;;20.05;38.78;100322.66;5079451;28;46165;-41
2023/04/01 17:27:01;;;;;;;;;0.00;0.00;;;;;20.05;38.94;100327.94;5079203;28;45323;-39
2023/04/01 17:30:22;;;;;;;;;0.00;0.00;;;;;20.03;39.17;100332.44;5079401;28;45802;-41
2023/04/01 17:33:08;;;;;;;;;0.00;0.00;;;;;20.06;38.98;100348.03;5036599;28;45497;-39
2023/04/01 17:36:15;;;;;;;;;0.00;0.00;;;;;20.06;39.11;100348.88;5075812;28;46281;-39
2023/04/01 17:39:18;;;;;;;;;0.00;0.00;;;;;20.07;39.10;100353.19;5073062;28;45872;-41
2023/04/01 17:41:58;;;;;;;;;0.00;0.00;;;;;20.07;39.35;100349.72;5079436;28;45368;-40
2023/04/01 17:44:49;;;;;;;;;0.00;0.00;;;;;20.07;39.26;100350.56;5080090;28;45306;-44
2023/04/01 17:47:17;;;;;;;;;0.50;0.00;;;;;20.08;39.25;100349.63;5094033;28;45598;-45
2023/04/01 17:49:57;;;;;;;;;0.00;0.00;;;;;20.09;39.17;100368.88;5100749;28;45205;-40
2023/04/01 17:52:47;;;;;;;;;0.00;0.00;;;;;20.10;39.64;100361.84;5082115;28;45331;-42
2023/04/01 17:55:33;;;;;;;;;0.00;0.00;;;;;20.09;38.83;100366.25;5084783;27;45301;-41
2023/04/01 17:58:18;;;;;;;;;0.00;0.00;;;;;20.07;38.88;100373.38;5085952;28;45723;-40
2023/04/01 18:00:46;;;;;;;;;0.00;0.00;;;;;20.11;39.03;100374.06;5088261;28;45791;-41
2023/04/01 18:03:32;;;;;;;;;0.00;0.00;;;;;20.10;39.19;100386.34;5103102;28;44743;-39
2023/04/01 18:06:36;;;;;;;;;0.50;0.00;;;;;20.11;38.97;100393.31;5096765;28;45425;-38
2023/04/01 18:09:34;;;;;;;;;0.00;0.00;;;;;20.11;39.53;100388.06;5045511;28;46235;-39
2023/04/01 18:12:28;;;;;;;;;0.00;0.00;;;;;20.10;39.10;100390.78;5079756;27;45375;-38
2023/04/01 18:15:17;;;;;;;;;0.00;0.00;;;;;20.12;39.38;100383.66;5083450;28;45357;-39
2023/04/01 18:18:02;;;;;;;;;0.00;0.00;;;;;20.10;39.26;100401.31;5089651;28;45378;-39
2023/04/01 18:20:53;;;;;;;;;0.25;0.25;;;;;20.12;39.38;100407.34;5078587;28;47226;-39
2023/04/01 18:23:38;;;;;;;;;0.00;0.00;;;;;20.12;39.74;100410.78;5102758;27;45176;-40
2023/04/01 18:26:27;;;;;;;;;0.00;0.00;;;;;20.12;39.36;100408.16;5100081;28;44788;-41
2023/04/01 18:29:40;;;;;;;;;0.00;0.00;;;;;20.13;39.29;100414.25;5100788;27;44772;-40
2023/04/01 18:32:27;;;;;;;;;0.00;0.00;;;;;20.12;39.45;100417.84;5093139;28;45407;-41
2023/04/01 18:35:21;;;;;;;;;0.00;0.00;;;;;20.13;39.43;100424.78;5102134;28;45683;-41
2023/04/01 18:38:13;;;;;;;;;0.00;0.00;;;;;20.11;39.65;100424.06;5102931;27;45257;-42
2023/04/01 18:40:47;;;;;;;;;0.00;0.00;;;;;20.13;39.72;100443.19;5099584;28;45241;-42
2023/04/01 18:43:29;;;;;;;;;0.00;0.00;;;;;20.12;39.50;100449.44;5064906;28;46618;-41
2023/04/01 18:46:01;;;;;;;;;0.00;0.00;;;;;20.13;39.41;100457.22;5080987;28;45883;-43
2023/04/01 18:49:05;;;;;;;;;0.00;0.00;;;;;20.17;39.46;100461.38;5080260;28;45338;-43
2023/04/01 18:51:46;;;;;;;;;0.00;0.00;;;;;20.18;39.90;100462.22;5079009;28;45284;-45
2023/04/01 18:54:32;;;;;;;;;0.00;0.00;;;;;20.21;39.97;100456.78;5079412;28;47643;-41
2023/04/01 18:57:09;;;;;;;;;0.00;0.00;;;;;20.25;39.86;100471.41;5078555;27;45295;-41
2023/04/01 18:59:45;;;;;;;;;0.00;0.00;;;;;20.27;39.90;100471.34;5078940;28;45323;-41
2023/04/01 19:02:21;;;;;;;;;0.50;0.00;;;;;20.30;39.39;100474.63;5072910;28;45303;-42
2023/04/01 19:04:57;;;;;;;;;0.25;0.00;;;;;20.31;39.96;100476.31;5095474;28;46562;-40
2023/04/01 19:07:47;;;;;;;;;1.00;0.25;;;;;20.34;39.63;100484.00;5087670;27;45730;-42
2023/04/01 19:10:26;;;;;;;;;1.00;1.00;;;;;20.36;40.14;100484.78;5068079;28;45327;-42
2023/04/01 19:13:22;;;;;;;;;1.00;1.00;;;;;20.41;39.98;100488.94;5079497;28;45322;-44
2023/04/01 19:15:57;;;;;;;;;1.00;1.00;;;;;20.42;40.03;100495.88;5056580;28;45528;-42
2023/04/01 19:18:37;;;;;;;;;1.75;1.25;;;;;20.44;40.50;100499.28;5075278;28;45366;-40
2023/04/01 19:21:13;;;;;;;;;2.00;2.00;;;;;20.45;40.87;100508.88;5077217;28;45421;-41
2023/04/01 19:23:54;;;;;;;;;8.25;7.75;;;;;20.48;41.22;100517.44;5076572;28;45318;-41
2023/04/01 19:26:27;;;;;;;;;65.50;51.25;;;;;20.51;41.29;100517.22;5076788;28;47005;-41
2023/04/01 19:29:06;;;;;;;;;151.50;125.00;;;;;20.52;41.31;100518.09;5076660;28;45464;-40
2023/04/01 19:31:37;;;;;;;;;133.75;118.50;;;;;20.55;42.03;100515.28;5076354;28;45323;-41
2023/04/01 19:34:08;;;;;;;;;138.75;122.00;;;;;20.58;42.00;100524.75;5076704;28;45645;-41
2023/04/01 19:36:47;;;;;;;;;190.25;162.75;;;;;20.60;42.62;100536.88;5076284;28;46097;-41
2023/04/01 19:39:37;;;;;;;;;187.50;166.75;;;;;20.60;42.93;100536.88;5076717;28;45462;-40
2023/04/01 19:42:39;;;;;;;;;210.25;176.50;;;;;20.62;43.10;100542.91;5076716;28;45484;-41
2023/04/01 19:45:13;;;;;;;;;184.50;164.75;;;;;20.64;43.79;100548.94;5082389;28;45228;-41
2023/04/01 19:47:51;;;;;;;;;191.75;167.50;;;;;20.65;43.29;100552.41;5084568;28;47001;-41
2023/04/01 19:50:34;;;;;;;;;178.75;159.75;;;;;20.66;43.79;100554.97;5077650;28;45341;-41
2023/04/01 19:53:10;;;;;;;;;167.00;150.00;;;;;20.66;44.25;100562.88;5076538;28;45197;-40
2023/04/01 19:56:00;;;;;;;;;160.25;139.50;;;;;20.66;44.36;100556.75;5075989;28;45421;-39
2023/04/01 19:58:41;;;;;;;;;166.25;144.00;;;;;20.67;44.18;100564.53;5076464;28;47149;-41